Time;durP1;ratioP1;P1;durP2;ratioP2;P2;SDS_P1;SDS_P2;PMS_P1;PMS_P2;Temp;Humidity;BMP_temperature;BMP_pressure;BME280_temperature;BME280_humidity;BME280_pressure;Samples;Min_cycle;Max_cycle;Signal;HPM_P1;HPM_P2
2022/11/01 00:01:32;;;;;;;2.35;1.70;;;10.20;99.90;;;;;;5057790;28;20460;-66
2022/11/01 00:03:59;;;;;;;1.90;1.77;;;10.20;99.90;;;;;;5062218;28;20439;-65
2022/11/01 00:06:28;;;;;;;1.52;1.48;;;10.20;99.90;;;;;;5062603;28;20433;-66
2022/11/01 00:08:55;;;;;;;1.95;1.20;;;10.10;99.90;;;;;;5064641;28;20431;-66
2022/11/01 00:11:21;;;;;;;2.20;1.53;;;10.10;99.90;;;;;;5064334;28;20429;-66
2022/11/01 00:13:49;;;;;;;1.25;1.25;;;10.10;99.90;;;;;;5064341;28;20925;-66
2022/11/01 00:16:18;;;;;;;1.67;1.58;;;10.10;99.90;;;;;;5063685;28;20431;-66
2022/11/01 00:18:48;;;;;;;1.43;1.30;;;10.20;99.90;;;;;;5063007;28;20424;-66
2022/11/01 00:21:15;;;;;;;1.40;1.30;;;10.20;99.90;;;;;;5057997;28;20498;-66
2022/11/01 00:23:43;;;;;;;2.15;1.63;;;10.30;99.90;;;;;;5063942;28;20440;-66
2022/11/01 00:26:17;;;;;;;1.37;1.33;;;10.40;99.90;;;;;;5065986;28;20914;-66
2022/11/01 00:28:45;;;;;;;2.83;1.30;;;10.40;99.90;;;;;;5067507;28;20442;-66
2022/11/01 00:31:13;;;;;;;1.63;1.52;;;10.50;99.90;;;;;;5068139;28;20432;-66
2022/11/01 00:33:40;;;;;;;1.63;1.60;;;10.50;99.90;;;;;;5067622;28;20427;-66
2022/11/01 00:36:08;;;;;;;1.77;1.67;;;10.50;99.90;;;;;;5059027;28;20459;-66
2022/11/01 00:38:35;;;;;;;1.75;1.65;;;10.50;99.90;;;;;;5061771;28;20962;-66
2022/11/01 00:41:02;;;;;;;1.10;1.10;;;10.50;99.90;;;;;;5068212;28;20439;-66
2022/11/01 00:43:34;;;;;;;1.50;1.40;;;10.50;99.90;;;;;;5054038;28;20471;-66
2022/11/01 00:46:02;;;;;;;1.40;1.30;;;10.40;99.90;;;;;;5052776;28;20433;-66
2022/11/01 00:48:28;;;;;;;2.35;1.05;;;10.40;99.90;;;;;;5054883;28;20522;-66
2022/11/01 00:50:55;;;;;;;1.27;1.17;;;10.30;99.90;;;;;;5063864;28;20547;-66
2022/11/01 00:53:22;;;;;;;1.52;1.42;;;10.20;99.90;;;;;;5063135;28;20436;-66
2022/11/01 00:55:49;;;;;;;1.35;1.25;;;10.20;99.90;;;;;;5052014;28;20441;-66
2022/11/01 00:58:15;;;;;;;1.38;1.27;;;10.10;99.90;;;;;;5059207;28;20435;-66
2022/11/01 01:00:42;;;;;;;2.45;1.58;;;10.20;99.90;;;;;;5063219;28;20455;-66
2022/11/01 01:03:09;;;;;;;1.50;1.40;;;10.20;99.90;;;;;;5055650;28;20436;-66
2022/11/01 01:05:35;;;;;;;1.58;1.48;;;10.20;99.90;;;;;;5064275;28;20432;-66
2022/11/01 01:08:03;;;;;;;1.70;1.60;;;10.30;99.90;;;;;;5068548;28;20924;-66
2022/11/01 01:10:30;;;;;;;1.02;1.02;;;10.30;99.90;;;;;;5066417;28;20439;-66
2022/11/01 01:13:00;;;;;;;2.60;1.63;;;10.40;99.90;;;;;;5063105;28;20805;-66
2022/11/01 01:15:27;;;;;;;1.80;1.48;;;10.30;99.90;;;;;;5064113;28;20462;-66
2022/11/01 01:17:57;;;;;;;2.50;1.70;;;10.30;99.90;;;;;;5061345;28;20508;-66
2022/11/01 01:20:24;;;;;;;3.28;1.30;;;10.30;99.90;;;;;;5059234;28;20459;-66
2022/11/01 01:22:51;;;;;;;2.60;1.30;;;10.30;99.90;;;;;;5062882;28;20419;-66
2022/11/01 01:25:19;;;;;;;1.25;1.25;;;10.30;99.90;;;;;;5059939;28;20996;-66
2022/11/01 01:27:46;;;;;;;1.67;1.48;;;10.30;99.90;;;;;;5053786;28;20666;-66
2022/11/01 01:30:13;;;;;;;0.98;0.98;;;10.30;99.90;;;;;;5050885;28;20429;-66
2022/11/01 01:32:40;;;;;;;1.50;1.40;;;10.30;99.90;;;;;;5056636;28;20432;-66
2022/11/01 01:35:08;;;;;;;1.58;1.48;;;10.30;99.90;;;;;;5060074;28;20431;-67
2022/11/01 01:37:35;;;;;;;1.10;1.00;;;10.30;99.90;;;;;;5066832;28;20428;-66
2022/11/01 01:40:02;;;;;;;1.40;0.93;;;10.30;99.90;;;;;;5063390;28;20454;-66
2022/11/01 01:42:35;;;;;;;1.40;1.30;;;10.30;99.90;;;;;;5052579;28;20441;-66
2022/11/01 01:45:35;;;;;;;1.00;1.00;;;10.30;99.90;;;;;;5062027;28;20431;-67
2022/11/01 01:48:20;;;;;;;1.45;1.35;;;10.40;99.90;;;;;;5061427;28;20435;-66
2022/11/01 01:51:15;;;;;;;1.25;1.15;;;10.40;99.90;;;;;;5061158;28;20505;-67
2022/11/01 01:53:46;;;;;;;1.17;1.17;;;10.40;99.90;;;;;;5056451;28;20427;-66
2022/11/01 01:56:18;;;;;;;1.50;1.40;;;10.40;99.90;;;;;;5065315;28;20481;-67
2022/11/01 01:58:53;;;;;;;1.43;1.33;;;10.40;99.90;;;;;;5063392;28;21103;-67
2022/11/01 02:01:20;;;;;;;1.17;1.17;;;10.40;99.90;;;;;;5065629;28;20431;-66
2022/11/01 02:03:50;;;;;;;1.13;1.02;;;10.50;99.90;;;;;;5063284;28;20841;-67
2022/11/01 02:06:20;;;;;;;3.07;1.40;;;10.50;99.90;;;;;;5060354;28;20431;-66
2022/11/01 02:09:00;;;;;;;1.48;1.40;;;10.50;99.90;;;;;;5066153;28;20517;-67
2022/11/01 02:11:29;;;;;;;1.25;1.20;;;10.50;99.90;;;;;;5064125;28;20428;-67
2022/11/01 02:13:57;;;;;;;1.20;1.20;;;10.60;99.90;;;;;;5059021;28;20509;-67
2022/11/01 02:16:36;;;;;;;0.93;0.93;;;10.60;99.90;;;;;;5057613;28;20450;-66
2022/11/01 02:19:14;;;;;;;0.98;0.98;;;10.60;99.90;;;;;;5058729;28;20509;-66
2022/11/01 02:22:02;;;;;;;0.88;0.88;;;10.60;99.90;;;;;;5063726;28;20431;-66
2022/11/01 02:24:41;;;;;;;1.67;1.58;;;10.60;99.90;;;;;;5056688;28;20467;-67
2022/11/01 02:27:12;;;;;;;1.98;1.20;;;10.60;99.90;;;;;;5056278;28;21378;-67
2022/11/01 02:30:11;;;;;;;1.15;1.15;;;10.60;99.90;;;;;;5058678;28;20431;-66
2022/11/01 02:33:04;;;;;;;0.98;0.98;;;10.60;99.90;;;;;;5057189;28;20429;-67
2022/11/01 02:35:58;;;;;;;1.03;0.93;;;10.60;99.90;;;;;;5057694;28;20479;-67
2022/11/01 02:38:25;;;;;;;0.90;0.90;;;10.60;99.90;;;;;;5062341;28;20437;-67
2022/11/01 02:41:10;;;;;;;1.15;1.05;;;10.60;99.90;;;;;;5067078;28;21101;-67
2022/11/01 02:44:03;;;;;;;2.00;1.90;;;10.60;99.90;;;;;;5059268;28;20945;-66
2022/11/01 02:49:25;;;;;;;1.43;1.33;;;10.60;99.90;;;;;;5058894;28;20427;-66
2022/11/01 02:51:54;;;;;;;1.30;1.20;;;10.70;99.90;;;;;;5065906;28;20427;-66
2022/11/01 02:54:31;;;;;;;3.30;1.42;;;10.70;99.90;;;;;;5060737;28;20503;-66
2022/11/01 02:57:04;;;;;;;1.58;1.48;;;10.70;99.90;;;;;;5060738;28;20419;-66
2022/11/01 02:59:42;;;;;;;2.00;1.65;;;10.80;99.90;;;;;;5057735;28;20459;-66
2022/11/01 03:02:38;;;;;;;1.43;1.40;;;10.80;99.90;;;;;;5048833;28;20441;-66
2022/11/01 03:05:09;;;;;;;1.75;1.65;;;10.80;99.90;;;;;;5058611;28;20454;-66
2022/11/01 03:07:44;;;;;;;1.00;1.00;;;10.80;99.90;;;;;;5063773;28;20446;-67
2022/11/01 03:10:11;;;;;;;1.48;1.38;;;10.90;99.90;;;;;;5064851;28;20440;-67
2022/11/01 03:13:00;;;;;;;1.90;1.20;;;10.90;99.90;;;;;;5061314;28;20441;-66
2022/11/01 03:15:38;;;;;;;1.90;1.42;;;10.90;99.90;;;;;;5056045;28;20455;-66
2022/11/01 03:18:22;;;;;;;1.85;1.35;;;11.00;99.90;;;;;;5061321;28;20432;-66
2022/11/01 03:21:14;;;;;;;2.25;1.65;;;11.10;99.90;;;;;;5067021;28;20427;-66
2022/11/01 03:23:49;;;;;;;1.67;1.58;;;11.10;99.90;;;;;;5055825;28;20512;-66
2022/11/01 03:26:28;;;;;;;1.42;1.38;;;11.20;99.90;;;;;;5058964;28;20436;-66
2022/11/01 03:29:01;;;;;;;1.80;1.50;;;11.20;99.90;;;;;;5067659;28;20431;-68
2022/11/01 03:31:31;;;;;;;1.60;1.55;;;11.30;99.90;;;;;;5061991;28;20451;-67
2022/11/01 03:34:14;;;;;;;2.13;1.70;;;11.40;99.90;;;;;;5064989;28;20427;-67
2022/11/01 03:36:50;;;;;;;1.80;1.70;;;11.50;99.90;;;;;;5059667;28;20428;-68
2022/11/01 03:39:25;;;;;;;2.20;2.00;;;11.60;99.90;;;;;;5055889;28;20424;-67
2022/11/01 03:41:57;;;;;;;1.45;1.38;;;11.60;99.90;;;;;;5067203;28;20492;-68
2022/11/01 03:44:25;;;;;;;1.90;1.80;;;11.60;99.90;;;;;;5063755;28;20509;-67
2022/11/01 03:46:52;;;;;;;1.30;1.27;;;11.60;99.90;;;;;;5061397;28;20427;-67
2022/11/01 03:49:22;;;;;;;1.33;1.30;;;11.70;99.90;;;;;;5064654;28;20439;-68
2022/11/01 03:51:49;;;;;;;1.92;1.83;;;11.70;99.90;;;;;;5057725;28;21183;-68
2022/11/01 03:54:18;;;;;;;2.03;1.88;;;11.80;99.90;;;;;;5067514;28;20429;-69
2022/11/01 03:56:45;;;;;;;1.88;1.45;;;11.90;99.90;;;;;;5056179;28;20483;-66
2022/11/01 03:59:12;;;;;;;1.13;1.13;;;11.90;99.90;;;;;;5065355;28;20431;-66
2022/11/01 04:01:41;;;;;;;1.10;1.10;;;12.00;99.90;;;;;;5057365;28;20438;-66
2022/11/01 04:04:08;;;;;;;1.73;1.63;;;12.00;99.90;;;;;;5066151;28;20539;-67
2022/11/01 04:06:34;;;;;;;1.35;1.25;;;12.00;99.90;;;;;;5061491;28;20905;-66
2022/11/01 04:09:01;;;;;;;1.38;1.38;;;12.00;99.90;;;;;;5069099;28;20440;-67
2022/11/01 04:11:28;;;;;;;1.48;1.38;;;12.10;99.90;;;;;;5067652;28;20427;-67
2022/11/01 04:20:31;;;;;;;1.43;1.33;;;12.10;99.90;;;;;;5059756;28;20433;-67
2022/11/01 04:22:15;;;;;;;1.60;1.50;;;12.10;99.90;;;;;;5052890;28;20433;-67
2022/11/01 04:24:47;;;;;;;1.60;1.50;;;12.10;99.90;;;;;;5060186;28;20425;-67
2022/11/01 04:27:14;;;;;;;1.47;1.37;;;12.10;99.90;;;;;;5060662;28;20443;-67
2022/11/01 04:29:41;;;;;;;2.63;1.70;;;12.20;99.90;;;;;;5069514;28;20949;-67
2022/11/01 04:32:07;;;;;;;1.42;1.33;;;12.20;99.90;;;;;;5066477;28;20463;-67
2022/11/01 04:34:43;;;;;;;1.02;0.82;;;12.10;99.90;;;;;;5062866;28;20429;-67
2022/11/01 04:37:10;;;;;;;1.63;1.52;;;12.10;99.90;;;;;;5063910;28;20428;-67
2022/11/01 04:39:37;;;;;;;1.90;1.40;;;12.20;99.90;;;;;;5063319;28;20435;-67
2022/11/01 04:42:04;;;;;;;1.40;1.30;;;12.20;99.90;;;;;;5056656;28;21175;-68
2022/11/01 04:44:31;;;;;;;1.48;1.42;;;12.20;99.90;;;;;;5065503;28;20444;-67
2022/11/01 04:46:57;;;;;;;2.13;1.70;;;12.30;99.90;;;;;;5067418;28;20431;-68
2022/11/01 04:49:24;;;;;;;4.28;1.70;;;12.30;99.90;;;;;;5057249;28;20425;-68
2022/11/01 04:51:51;;;;;;;2.17;2.08;;;12.30;99.90;;;;;;5055546;28;20452;-67
2022/11/01 04:54:18;;;;;;;3.55;1.98;;;12.30;99.90;;;;;;5064207;28;20424;-67
2022/11/01 04:56:44;;;;;;;1.65;1.63;;;12.30;99.90;;;;;;5057869;28;20425;-68
2022/11/01 04:59:11;;;;;;;1.50;1.40;;;12.40;99.90;;;;;;5064118;28;20462;-68
2022/11/01 05:01:37;;;;;;;1.60;1.50;;;12.40;99.90;;;;;;5068824;28;20442;-67
2022/11/01 05:04:05;;;;;;;1.88;1.70;;;12.40;99.90;;;;;;5062443;28;20435;-68
2022/11/01 05:06:31;;;;;;;1.45;1.35;;;12.40;99.90;;;;;;5059586;28;20491;-68
2022/11/01 05:08:58;;;;;;;2.45;1.85;;;12.40;99.90;;;;;;5066021;28;20448;-68
2022/11/01 05:11:25;;;;;;;1.80;1.38;;;12.40;99.90;;;;;;5066236;28;20434;-72
2022/11/01 05:13:52;;;;;;;1.23;1.23;;;12.40;99.90;;;;;;5065596;28;20427;-69
2022/11/01 05:16:19;;;;;;;1.43;1.33;;;12.40;99.90;;;;;;5068394;28;20453;-69
2022/11/01 05:18:47;;;;;;;1.75;1.65;;;12.40;99.90;;;;;;5065491;28;20979;-69
2022/11/01 05:21:14;;;;;;;1.30;1.30;;;12.40;99.90;;;;;;5066789;28;20427;-68
2022/11/01 05:23:40;;;;;;;1.60;1.48;;;12.40;99.90;;;;;;5060512;28;20433;-69
2022/11/01 05:26:07;;;;;;;3.67;1.63;;;12.40;99.90;;;;;;5062237;28;20427;-69
2022/11/01 05:28:34;;;;;;;1.70;1.60;;;12.40;99.90;;;;;;5063057;28;20435;-68
2022/11/01 05:31:01;;;;;;;1.17;1.17;;;12.40;99.90;;;;;;5063402;28;20472;-69
2022/11/01 05:33:28;;;;;;;1.40;1.35;;;12.40;99.90;;;;;;5067568;28;20431;-69
2022/11/01 05:35:55;;;;;;;1.30;1.20;;;12.40;99.90;;;;;;5066234;28;20435;-69
2022/11/01 05:38:22;;;;;;;1.80;1.70;;;12.30;99.90;;;;;;5066351;28;20946;-68
2022/11/01 05:40:49;;;;;;;2.75;1.85;;;12.30;99.90;;;;;;5057757;28;20546;-69
2022/11/01 05:43:16;;;;;;;2.40;1.20;;;12.30;99.90;;;;;;5060099;28;20431;-69
2022/11/01 05:45:43;;;;;;;1.63;1.52;;;12.30;99.90;;;;;;5064348;28;20427;-69
2022/11/01 05:48:10;;;;;;;4.70;1.58;;;12.30;99.90;;;;;;5064229;28;20420;-69
2022/11/01 05:50:37;;;;;;;2.30;1.90;;;12.30;99.90;;;;;;5063762;28;20427;-69
2022/11/01 05:53:08;;;;;;;1.27;1.23;;;12.30;99.90;;;;;;5066945;28;20439;-68
2022/11/01 05:55:36;;;;;;;1.67;1.58;;;12.30;99.90;;;;;;5067425;28;20427;-69
2022/11/01 05:58:03;;;;;;;2.70;1.30;;;12.30;99.90;;;;;;5054539;28;21240;-69
2022/11/01 06:00:31;;;;;;;2.65;1.90;;;12.30;99.90;;;;;;5060366;28;20437;-68
2022/11/01 06:03:00;;;;;;;1.77;1.67;;;12.40;99.90;;;;;;5059816;28;22073;-68
2022/11/01 06:05:28;;;;;;;1.58;1.48;;;12.40;99.90;;;;;;5052557;28;20431;-68
2022/11/01 06:07:56;;;;;;;2.90;1.83;;;12.50;99.90;;;;;;5060042;28;20435;-68
2022/11/01 06:10:23;;;;;;;1.98;1.67;;;12.50;99.90;;;;;;5052771;28;20437;-68
2022/11/01 06:12:49;;;;;;;1.70;1.60;;;12.60;99.90;;;;;;5056725;28;20431;-69
2022/11/01 06:15:16;;;;;;;1.38;1.27;;;12.60;99.90;;;;;;5056018;28;20427;-69
2022/11/01 06:17:43;;;;;;;1.92;1.80;;;12.60;99.90;;;;;;5062459;28;21136;-68
2022/11/01 06:20:10;;;;;;;5.38;1.45;;;12.60;99.90;;;;;;5053297;28;20433;-68
2022/11/01 06:22:38;;;;;;;1.35;1.25;;;12.60;99.90;;;;;;5062560;28;20511;-68
2022/11/01 06:25:05;;;;;;;1.48;1.38;;;12.60;99.90;;;;;;5051388;28;20438;-69
2022/11/01 06:27:32;;;;;;;1.20;1.10;;;12.60;99.90;;;;;;5056725;28;20988;-69
2022/11/01 06:30:02;;;;;;;1.20;1.20;;;12.60;99.90;;;;;;5054355;28;21303;-69
2022/11/01 06:32:29;;;;;;;1.58;1.48;;;12.60;99.90;;;;;;5058825;28;20464;-68
2022/11/01 06:34:58;;;;;;;1.75;1.65;;;12.70;99.90;;;;;;5055163;28;20431;-69
2022/11/01 06:37:25;;;;;;;1.77;1.65;;;12.60;99.90;;;;;;5055802;28;20433;-70
2022/11/01 06:39:52;;;;;;;1.45;1.35;;;12.60;99.90;;;;;;5059983;28;24631;-69
2022/11/01 06:42:18;;;;;;;1.30;1.20;;;12.60;99.90;;;;;;5061112;28;20910;-69
2022/11/01 06:44:45;;;;;;;2.80;1.90;;;12.60;99.90;;;;;;5060776;28;21008;-69
2022/11/01 06:47:12;;;;;;;1.40;1.30;;;12.60;99.90;;;;;;5056034;28;20918;-69
2022/11/01 06:49:39;;;;;;;1.33;1.27;;;12.60;99.90;;;;;;5054939;28;20488;-69
2022/11/01 06:52:07;;;;;;;1.75;1.65;;;12.70;99.90;;;;;;5052173;28;20534;-69
2022/11/01 06:54:34;;;;;;;2.00;1.77;;;12.70;99.90;;;;;;5052424;28;20485;-69
2022/11/01 06:57:00;;;;;;;1.52;1.42;;;12.70;99.90;;;;;;5051571;28;20433;-69
2022/11/01 06:59:27;;;;;;;3.47;1.50;;;12.70;99.90;;;;;;5067583;28;20850;-69
2022/11/01 07:01:54;;;;;;;1.20;1.20;;;12.80;99.90;;;;;;5062250;28;20431;-69
2022/11/01 07:04:21;;;;;;;2.40;1.48;;;12.80;99.90;;;;;;5056368;28;20442;-69
2022/11/01 07:06:48;;;;;;;1.13;1.13;;;12.80;99.90;;;;;;5062238;28;23281;-69
2022/11/01 07:09:14;;;;;;;1.80;1.42;;;12.80;99.90;;;;;;5058429;28;20427;-69
2022/11/01 07:11:41;;;;;;;1.45;1.35;;;12.90;99.90;;;;;;5049983;28;20442;-69
2022/11/01 07:14:08;;;;;;;1.50;1.40;;;12.90;99.90;;;;;;5047488;28;20433;-69
2022/11/01 07:16:35;;;;;;;2.70;1.83;;;12.90;99.90;;;;;;5056625;28;20810;-69
2022/11/01 07:19:05;;;;;;;2.72;1.65;;;12.90;99.90;;;;;;5053313;28;20482;-69
2022/11/01 07:21:32;;;;;;;1.98;1.33;;;12.90;99.90;;;;;;5047513;28;20525;-69
2022/11/01 07:23:59;;;;;;;1.50;1.40;;;12.90;99.90;;;;;;5044615;28;20481;-69
2022/11/01 07:26:25;;;;;;;1.65;1.25;;;12.90;99.90;;;;;;5046390;28;20789;-71
2022/11/01 07:28:52;;;;;;;1.35;1.27;;;12.90;99.90;;;;;;5047296;28;21112;-67
2022/11/01 07:31:19;;;;;;;3.30;1.60;;;13.00;99.90;;;;;;5055818;28;20427;-67
2022/11/01 07:33:46;;;;;;;1.43;1.27;;;13.00;99.90;;;;;;5053813;28;20481;-67
2022/11/01 07:36:12;;;;;;;2.00;1.80;;;13.00;99.90;;;;;;5052922;28;20437;-67
2022/11/01 07:38:39;;;;;;;3.97;2.08;;;13.10;99.90;;;;;;5051486;28;20425;-67
2022/11/01 07:41:06;;;;;;;1.60;1.50;;;13.10;99.90;;;;;;5056544;28;20436;-69
2022/11/01 07:43:34;;;;;;;1.17;1.17;;;13.20;99.90;;;;;;5057443;28;20439;-69
2022/11/01 07:46:03;;;;;;;3.10;1.60;;;13.40;99.90;;;;;;5034221;28;20436;-69
2022/11/01 07:48:29;;;;;;;1.80;1.70;;;13.40;99.90;;;;;;5030035;28;20430;-69
2022/11/01 07:50:56;;;;;;;1.85;1.75;;;13.50;99.90;;;;;;5059635;28;20960;-67
2022/11/01 07:53:23;;;;;;;1.65;1.30;;;13.60;99.90;;;;;;5052513;28;20794;-66
2022/11/01 07:55:50;;;;;;;2.20;1.50;;;13.70;99.90;;;;;;5046595;28;20431;-67
2022/11/01 07:58:17;;;;;;;2.75;1.77;;;13.70;99.90;;;;;;5052527;28;20926;-67
2022/11/01 08:00:44;;;;;;;1.93;1.80;;;13.80;99.90;;;;;;5049731;28;20824;-66
2022/11/01 08:03:14;;;;;;;1.43;1.33;;;14.00;99.90;;;;;;5050886;28;20550;-68
2022/11/01 08:05:42;;;;;;;1.60;1.50;;;14.10;99.90;;;;;;5060825;28;20985;-68
2022/11/01 08:08:09;;;;;;;1.60;1.50;;;14.10;99.90;;;;;;5057498;28;20570;-67
2022/11/01 08:10:36;;;;;;;1.13;1.13;;;14.20;99.90;;;;;;5063790;28;20921;-67
2022/11/01 08:13:13;;;;;;;1.67;1.55;;;14.20;99.90;;;;;;5056927;28;20430;-67
2022/11/01 08:15:39;;;;;;;2.10;1.63;;;14.30;99.90;;;;;;5064520;28;20796;-68
2022/11/01 08:18:06;;;;;;;1.60;1.50;;;14.30;94.10;;;;;;5058541;28;20423;-68
2022/11/01 08:20:33;;;;;;;2.45;1.80;;;14.30;61.00;;;;;;5057171;28;20443;-67
2022/11/01 08:23:00;;;;;;;1.63;1.33;;;14.30;50.20;;;;;;5058001;28;20438;-71
2022/11/01 08:25:28;;;;;;;1.15;1.05;;;14.30;34.10;;;;;;5062800;28;20461;-67
2022/11/01 08:28:03;;;;;;;3.45;1.58;;;14.40;57.70;;;;;;5054753;28;20429;-68
2022/11/01 08:30:30;;;;;;;1.67;1.50;;;14.50;60.50;;;;;;5066061;28;20458;-67
2022/11/01 08:32:58;;;;;;;1.77;1.40;;;14.40;2.10;;;;;;5064750;28;20485;-68
2022/11/01 08:35:27;;;;;;;1.60;1.50;;;14.40;1.00;;;;;;5058576;28;20455;-67
2022/11/01 08:37:54;;;;;;;1.80;1.13;;;14.40;2.00;;;;;;5054972;28;20434;-68
2022/11/01 08:40:21;;;;;;;1.75;1.33;;;14.40;9.00;;;;;;5063443;28;20929;-68
2022/11/01 08:42:48;;;;;;;1.60;1.33;;;14.40;1.00;;;;;;5061516;28;20436;-67
2022/11/01 08:45:15;;;;;;;1.92;1.80;;;14.50;1.00;;;;;;5056561;28;20470;-67
2022/11/01 08:47:45;;;;;;;1.20;1.20;;;14.40;1.00;;;;;;5057970;28;20915;-67
2022/11/01 08:50:15;;;;;;;1.08;0.98;;;14.30;1.00;;;;;;5054568;28;22341;-67
2022/11/01 08:52:44;;;;;;;3.37;1.00;;;14.40;1.00;;;;;;5056981;28;20440;-67
2022/11/01 08:55:12;;;;;;;1.17;1.10;;;14.40;1.00;;;;;;5058771;28;20440;-67
2022/11/01 08:57:38;;;;;;;0.93;0.93;;;14.50;1.00;;;;;;5055568;28;20435;-67
2022/11/01 09:00:06;;;;;;;1.77;1.10;;;14.50;1.00;;;;;;5060474;28;20438;-66
2022/11/01 09:02:35;;;;;;;0.98;0.98;;;14.50;1.00;;;;;;5056483;28;20431;-66
2022/11/01 09:05:05;;;;;;;0.88;0.88;;;14.60;1.00;;;;;;5063524;28;20822;-66
2022/11/01 09:07:38;;;;;;;0.90;0.90;;;14.80;1.00;;;;;;5057769;28;20493;-67
2022/11/01 09:10:05;;;;;;;1.00;1.00;;;14.90;99.90;;;;;;5058556;28;20432;-67
2022/11/01 09:12:32;;;;;;;1.00;0.90;;;15.00;99.90;;;;;;5065822;28;20439;-67
2022/11/01 09:14:59;;;;;;;0.50;0.50;;;15.10;1.00;;;;;;5064544;28;20423;-67
2022/11/01 09:17:29;;;;;;;0.60;0.60;;;15.10;99.90;;;;;;5055123;28;20452;-67
2022/11/01 09:19:56;;;;;;;0.88;0.88;;;15.20;1.00;;;;;;5061106;28;20425;-68
2022/11/01 09:22:23;;;;;;;2.73;0.80;;;15.30;99.90;;;;;;5065373;28;20817;-67
2022/11/01 09:24:50;;;;;;;0.55;0.55;;;15.20;1.00;;;;;;5062675;28;20463;-68
2022/11/01 09:27:20;;;;;;;0.77;0.70;;;15.10;1.00;;;;;;5060867;28;20446;-67
2022/11/01 09:29:46;;;;;;;0.25;0.25;;;15.10;99.90;;;;;;5055821;28;20452;-68
2022/11/01 09:32:17;;;;;;;0.75;0.50;;;15.10;1.00;;;;;;5054307;28;20434;-68
2022/11/01 09:34:45;;;;;;;0.40;0.40;;;15.20;99.90;;;;;;5058517;28;21153;-67
2022/11/01 09:37:12;;;;;;;0.30;0.30;;;15.30;99.90;;;;;;5057696;28;20441;-67
2022/11/01 09:39:39;;;;;;;1.20;0.60;;;15.40;61.90;;;;;;5061124;28;20482;-67
2022/11/01 09:42:21;;;;;;;0.22;0.22;;;15.50;1.00;;;;;;5066354;28;21439;-67
2022/11/01 09:44:51;;;;;;;3.30;0.40;;;15.70;1.00;;;;;;5054184;28;21302;-68
2022/11/01 09:47:25;;;;;;;0.40;0.40;;;15.80;1.00;;;;;;5056496;28;20420;-68
2022/11/01 09:50:23;;;;;;;0.45;0.45;;;15.80;1.00;;;;;;5054141;28;20446;-67
2022/11/01 09:52:51;;;;;;;0.30;0.30;;;15.90;1.00;;;;;;5048995;28;20433;-67
2022/11/01 09:55:32;;;;;;;1.00;0.30;;;16.00;1.00;;;;;;5059873;28;20433;-67
2022/11/01 09:58:23;;;;;;;0.28;0.28;;;16.10;1.00;;;;;;5065512;28;20450;-67
2022/11/01 10:01:05;;;;;;;0.50;0.28;;;16.00;1.00;;;;;;5072174;28;20500;-67
2022/11/01 10:04:06;;;;;;;0.30;0.30;;;15.80;99.90;;;;;;5058072;28;20433;-66
2022/11/01 10:06:38;;;;;;;0.30;0.30;;;15.60;99.90;;;;;;5053090;28;20488;-67
2022/11/01 10:09:53;;;;;;;0.40;0.40;;;15.50;99.90;;;;;;5062370;28;20442;-67
2022/11/01 10:12:44;;;;;;;0.30;0.30;;;15.40;99.90;;;;;;5048553;28;20536;-67
2022/11/01 10:15:32;;;;;;;0.20;0.20;;;15.30;99.90;;;;;;5063168;28;20446;-67
2022/11/01 10:18:27;;;;;;;0.30;0.30;;;15.10;99.90;;;;;;5058122;28;20432;-67
2022/11/01 10:20:59;;;;;;;0.30;0.30;;;15.00;99.90;;;;;;5048164;28;20921;-67
2022/11/01 10:23:50;;;;;;;0.40;0.20;;;14.80;99.90;;;;;;5073138;28;20913;-67
2022/11/01 10:26:28;;;;;;;0.70;0.20;;;14.80;99.90;;;;;;5055826;28;20509;-66
2022/11/01 10:29:27;;;;;;;0.20;0.20;;;14.80;99.90;;;;;;5053263;28;20433;-68
2022/11/01 10:31:55;;;;;;;0.30;0.30;;;15.00;99.90;;;;;;5066834;28;20976;-68
2022/11/01 10:34:24;;;;;;;0.40;0.40;;;15.10;99.90;;;;;;5054313;28;20433;-67
2022/11/01 10:36:56;;;;;;;0.20;0.20;;;15.30;99.90;;;;;;5054503;28;20434;-68
2022/11/01 10:39:54;;;;;;;0.40;0.40;;;15.70;99.90;;;;;;5059394;28;20444;-68
2022/11/01 10:42:27;;;;;;;2.37;0.40;;;16.40;99.90;;;;;;5055895;28;20433;-68
2022/11/01 10:44:58;;;;;;;0.30;0.30;;;17.00;99.90;;;;;;5054046;28;20432;-68
2022/11/01 10:47:27;;;;;;;0.30;0.30;;;17.60;99.90;;;;;;5057632;28;20436;-68
2022/11/01 10:50:11;;;;;;;0.30;0.30;;;18.00;99.90;;;;;;5053530;28;20454;-68
2022/11/01 10:53:01;;;;;;;0.90;0.30;;;18.60;99.90;;;;;;5063899;28;20443;-68
2022/11/01 10:55:56;;;;;;;0.30;0.30;;;19.00;99.90;;;;;;5057906;28;20441;-68
2022/11/01 10:58:46;;;;;;;1.52;0.40;;;19.20;99.90;;;;;;5059458;28;20441;-68
2022/11/01 11:01:21;;;;;;;0.15;0.15;;;20.00;99.90;;;;;;5053864;28;20508;-68
2022/11/01 11:03:50;;;;;;;0.30;0.30;;;20.00;99.90;;;;;;5046074;28;20644;-69
2022/11/01 11:06:18;;;;;;;0.47;0.47;;;20.10;99.90;;;;;;5058122;28;20486;-65
2022/11/01 11:08:50;;;;;;;1.60;0.53;;;20.10;99.90;;;;;;5048460;28;20429;-66
2022/11/01 11:11:34;;;;;;;0.37;0.37;;;20.20;99.90;;;;;;5053893;28;20429;-66
2022/11/01 11:14:05;;;;;;;0.40;0.32;;;20.50;99.90;;;;;;5049041;28;20524;-66
2022/11/01 11:16:43;;;;;;;0.50;0.50;;;19.80;99.90;;;;;;5047019;28;21195;-65
2022/11/01 11:19:10;;;;;;;1.50;0.80;;;19.70;99.90;;;;;;5061724;28;20532;-65
2022/11/01 11:21:43;;;;;;;0.30;0.30;;;19.80;99.90;;;;;;5052328;28;20482;-65
2022/11/01 11:24:35;;;;;;;0.25;0.25;;;19.90;99.90;;;;;;5051825;28;20439;-68
2022/11/01 11:27:29;;;;;;;0.20;0.20;;;19.80;99.90;;;;;;5058618;28;20435;-68
2022/11/01 11:30:06;;;;;;;0.40;0.32;;;20.10;99.90;;;;;;5049410;28;20435;-66
2022/11/01 11:32:37;;;;;;;0.52;0.52;;;20.30;99.90;;;;;;5053947;28;20515;-66
2022/11/01 11:35:07;;;;;;;0.20;0.20;;;20.30;99.90;;;;;;5055944;28;20439;-65
2022/11/01 11:37:37;;;;;;;0.50;0.40;;;20.20;99.90;;;;;;5053329;28;20426;-66
2022/11/01 11:40:24;;;;;;;0.30;0.30;;;20.30;99.90;;;;;;5060793;28;20434;-66
2022/11/01 11:43:13;;;;;;;0.20;0.20;;;20.30;99.90;;;;;;5060757;28;20526;-66
2022/11/01 11:45:40;;;;;;;0.38;0.30;;;20.10;99.90;;;;;;5061983;28;20451;-66
2022/11/01 11:48:19;;;;;;;0.30;0.30;;;20.00;99.90;;;;;;5062421;28;20435;-66
2022/11/01 11:50:46;;;;;;;0.30;0.30;;;20.30;99.90;;;;;;5060257;28;20442;-66
2022/11/01 11:53:22;;;;;;;0.57;0.40;;;20.30;99.90;;;;;;5055508;28;20415;-68
2022/11/01 11:56:01;;;;;;;0.40;0.40;;;20.30;99.90;;;;;;5054395;28;20441;-67
2022/11/01 11:58:31;;;;;;;0.17;0.17;;;20.40;99.90;;;;;;5058115;28;20439;-67
2022/11/01 12:01:14;;;;;;;0.47;0.40;;;20.20;99.90;;;;;;5063402;28;20419;-67
2022/11/01 12:03:48;;;;;;;0.60;0.40;;;20.50;99.90;;;;;;5060059;28;20461;-67
2022/11/01 12:06:21;;;;;;;0.30;0.30;;;20.70;99.90;;;;;;5064553;28;20446;-67
2022/11/01 12:08:51;;;;;;;0.20;0.20;;;21.00;99.90;;;;;;5064240;28;20432;-68
2022/11/01 12:11:19;;;;;;;0.20;0.20;;;20.40;99.90;;;;;;5056275;28;20440;-68
2022/11/01 12:13:59;;;;;;;0.22;0.20;;;20.00;99.90;;;;;;5053588;28;20454;-67
2022/11/01 12:16:26;;;;;;;1.40;0.38;;;19.50;99.90;;;;;;5057846;28;20427;-67
2022/11/01 12:18:58;;;;;;;0.20;0.20;;;19.60;99.90;;;;;;5057939;28;20425;-67
2022/11/01 12:21:41;;;;;;;0.80;0.40;;;19.60;99.90;;;;;;5060254;28;20770;-67
2022/11/01 12:24:29;;;;;;;0.38;0.38;;;19.50;99.90;;;;;;5059869;28;20429;-67
2022/11/01 12:27:03;;;;;;;0.88;0.40;;;19.30;99.90;;;;;;5052566;28;20440;-67
2022/11/01 12:29:29;;;;;;;0.20;0.20;;;19.60;99.90;;;;;;5051917;28;20496;-67
2022/11/01 12:32:02;;;;;;;0.28;0.28;;;19.90;99.90;;;;;;5069454;28;20500;-67
2022/11/01 12:34:35;;;;;;;0.32;0.28;;;19.90;99.90;;;;;;5062506;28;20428;-67
2022/11/01 12:37:11;;;;;;;0.98;0.30;;;20.20;99.90;;;;;;5065374;28;20574;-67
2022/11/01 12:39:55;;;;;;;0.20;0.20;;;20.20;99.90;;;;;;5058991;28;20439;-67
2022/11/01 12:42:39;;;;;;;0.20;0.20;;;20.40;99.90;;;;;;5062654;28;20458;-67
2022/11/01 12:45:24;;;;;;;0.20;0.15;;;20.40;99.90;;;;;;5062092;28;20761;-67
2022/11/01 12:47:59;;;;;;;0.40;0.40;;;20.70;99.90;;;;;;5063106;28;20436;-68
2022/11/01 12:50:51;;;;;;;0.30;0.30;;;20.70;99.90;;;;;;5058630;28;20851;-67
2022/11/01 12:53:25;;;;;;;1.20;0.20;;;20.90;99.90;;;;;;5058032;28;20827;-67
2022/11/01 12:55:52;;;;;;;0.30;0.30;;;21.00;99.90;;;;;;5062117;28;20441;-67
2022/11/01 12:58:21;;;;;;;0.35;0.35;;;21.20;99.90;;;;;;5058735;28;20432;-67
2022/11/01 13:01:31;;;;;;;0.38;0.38;;;21.00;99.90;;;;;;5056291;28;21064;-67
2022/11/01 13:04:19;;;;;;;0.20;0.20;;;21.10;99.90;;;;;;5064833;28;20444;-67
2022/11/01 13:07:27;;;;;;;0.40;0.20;;;21.10;99.90;;;;;;5052111;28;20437;-68
2022/11/01 13:10:32;;;;;;;0.75;0.75;;;21.00;99.90;;;;;;5064767;28;20551;-67
2022/11/01 13:12:58;;;;;;;0.30;0.20;;;20.50;99.90;;;;;;5055395;28;20446;-67
2022/11/01 13:15:51;;;;;;;0.40;0.20;;;20.40;99.90;;;;;;5044455;28;20431;-67
2022/11/01 13:18:47;;;;;;;0.20;0.20;;;20.30;99.90;;;;;;5045859;28;20481;-72
2022/11/01 13:21:21;;;;;;;2.70;0.22;;;20.10;99.90;;;;;;5053616;28;20428;-72
2022/11/01 13:24:00;;;;;;;1.10;0.28;;;19.20;99.90;;;;;;5064954;28;20427;-67